sensor_id;sensor_type;location;lat;lon;timestamp;temperature;humidity
37412;DHT22;23278;52.110;6.050;2022-09-21T00:01:08;11.50;89.60
37412;DHT22;23278;52.110;6.050;2022-09-21T00:03:39;11.50;89.80
37412;DHT22;23278;52.110;6.050;2022-09-21T00:06:12;11.50;89.90
37412;DHT22;23278;52.110;6.050;2022-09-21T00:08:38;11.50;90.10
37412;DHT22;23278;52.110;6.050;2022-09-21T00:11:05;11.50;90.10
37412;DHT22;23278;52.110;6.050;2022-09-21T00:13:32;11.50;90.20
37412;DHT22;23278;52.110;6.050;2022-09-21T00:15:59;11.40;90.30
37412;DHT22;23278;52.110;6.050;2022-09-21T00:18:26;11.50;90.30
37412;DHT22;23278;52.110;6.050;2022-09-21T00:20:52;11.40;90.40
37412;DHT22;23278;52.110;6.050;2022-09-21T00:23:18;11.40;90.50
37412;DHT22;23278;52.110;6.050;2022-09-21T00:25:45;11.40;90.60
37412;DHT22;23278;52.110;6.050;2022-09-21T00:28:11;11.30;90.70
37412;DHT22;23278;52.110;6.050;2022-09-21T00:30:37;11.30;90.80
37412;DHT22;23278;52.110;6.050;2022-09-21T00:33:03;11.20;90.90
37412;DHT22;23278;52.110;6.050;2022-09-21T00:35:30;11.20;91.00
37412;DHT22;23278;52.110;6.050;2022-09-21T00:38:00;11.10;91.10
37412;DHT22;23278;52.110;6.050;2022-09-21T00:40:26;11.10;91.30
37412;DHT22;23278;52.110;6.050;2022-09-21T00:42:52;11.10;91.30
37412;DHT22;23278;52.110;6.050;2022-09-21T00:45:18;11.00;91.40
37412;DHT22;23278;52.110;6.050;2022-09-21T00:47:51;11.00;91.60
37412;DHT22;23278;52.110;6.050;2022-09-21T00:50:21;10.90;91.80
37412;DHT22;23278;52.110;6.050;2022-09-21T00:52:52;10.80;91.80
37412;DHT22;23278;52.110;6.050;2022-09-21T00:55:24;10.80;92.00
37412;DHT22;23278;52.110;6.050;2022-09-21T00:57:54;10.70;92.10
37412;DHT22;23278;52.110;6.050;2022-09-21T01:00:21;10.60;92.20
37412;DHT22;23278;52.110;6.050;2022-09-21T01:02:47;10.60;92.40
37412;DHT22;23278;52.110;6.050;2022-09-21T01:05:13;10.60;92.50
37412;DHT22;23278;52.110;6.050;2022-09-21T01:07:44;10.60;92.80
37412;DHT22;23278;52.110;6.050;2022-09-21T01:10:15;10.50;92.70
37412;DHT22;23278;52.110;6.050;2022-09-21T01:21:22;10.30;93.00
37412;DHT22;23278;52.110;6.050;2022-09-21T01:37:16;9.80;93.60
37412;DHT22;23278;52.110;6.050;2022-09-21T01:39:48;9.70;93.70
37412;DHT22;23278;52.110;6.050;2022-09-21T01:42:16;9.60;93.80
37412;DHT22;23278;52.110;6.050;2022-09-21T01:44:45;9.60;93.90
37412;DHT22;23278;52.110;6.050;2022-09-21T01:47:12;9.50;93.90
37412;DHT22;23278;52.110;6.050;2022-09-21T01:49:46;9.50;94.00
37412;DHT22;23278;52.110;6.050;2022-09-21T01:55:17;9.30;94.10
37412;DHT22;23278;52.110;6.050;2022-09-21T01:58:03;9.30;94.20
37412;DHT22;23278;52.110;6.050;2022-09-21T02:00:32;9.20;94.30
37412;DHT22;23278;52.110;6.050;2022-09-21T02:03:18;9.20;94.30
37412;DHT22;23278;52.110;6.050;2022-09-21T02:05:46;9.10;94.40
37412;DHT22;23278;52.110;6.050;2022-09-21T02:08:12;9.10;94.50
37412;DHT22;23278;52.110;6.050;2022-09-21T02:10:43;9.10;94.50
37412;DHT22;23278;52.110;6.050;2022-09-21T02:13:10;9.00;94.60
37412;DHT22;23278;52.110;6.050;2022-09-21T02:15:56;8.90;94.60
37412;DHT22;23278;52.110;6.050;2022-09-21T02:18:42;8.90;94.60
37412;DHT22;23278;52.110;6.050;2022-09-21T02:21:31;8.80;94.70
37412;DHT22;23278;52.110;6.050;2022-09-21T02:24:15;8.80;94.70
37412;DHT22;23278;52.110;6.050;2022-09-21T02:27:05;8.70;94.80
37412;DHT22;23278;52.110;6.050;2022-09-21T02:32:08;8.60;94.80
37412;DHT22;23278;52.110;6.050;2022-09-21T02:34:48;8.60;94.90
37412;DHT22;23278;52.110;6.050;2022-09-21T02:37:21;8.50;94.90
37412;DHT22;23278;52.110;6.050;2022-09-21T02:39:54;8.50;95.00
37412;DHT22;23278;52.110;6.050;2022-09-21T02:42:26;8.50;95.00
37412;DHT22;23278;52.110;6.050;2022-09-21T02:50:24;8.30;95.20
37412;DHT22;23278;52.110;6.050;2022-09-21T02:52:52;8.30;95.20
37412;DHT22;23278;52.110;6.050;2022-09-21T02:55:19;8.30;95.20
37412;DHT22;23278;52.110;6.050;2022-09-21T02:57:47;8.20;95.20
37412;DHT22;23278;52.110;6.050;2022-09-21T03:00:14;8.20;95.30
37412;DHT22;23278;52.110;6.050;2022-09-21T03:02:43;8.10;95.30
37412;DHT22;23278;52.110;6.050;2022-09-21T03:05:10;8.10;95.30
37412;DHT22;23278;52.110;6.050;2022-09-21T03:07:37;8.10;95.40
37412;DHT22;23278;52.110;6.050;2022-09-21T03:10:04;8.00;95.40
37412;DHT22;23278;52.110;6.050;2022-09-21T03:12:30;8.00;95.40
37412;DHT22;23278;52.110;6.050;2022-09-21T03:14:57;8.00;95.50
37412;DHT22;23278;52.110;6.050;2022-09-21T03:17:23;8.00;95.50
37412;DHT22;23278;52.110;6.050;2022-09-21T03:19:49;8.00;95.70
37412;DHT22;23278;52.110;6.050;2022-09-21T03:22:15;7.90;95.50
37412;DHT22;23278;52.110;6.050;2022-09-21T03:24:42;7.90;95.60
37412;DHT22;23278;52.110;6.050;2022-09-21T03:27:19;7.90;95.60
37412;DHT22;23278;52.110;6.050;2022-09-21T03:29:46;7.80;95.60
37412;DHT22;23278;52.110;6.050;2022-09-21T03:32:12;7.80;95.70
37412;DHT22;23278;52.110;6.050;2022-09-21T03:34:39;7.70;95.60
37412;DHT22;23278;52.110;6.050;2022-09-21T03:37:07;7.70;95.60
37412;DHT22;23278;52.110;6.050;2022-09-21T03:39:33;7.70;95.70
37412;DHT22;23278;52.110;6.050;2022-09-21T03:41:59;7.60;95.70
37412;DHT22;23278;52.110;6.050;2022-09-21T03:44:27;7.60;95.70
37412;DHT22;23278;52.110;6.050;2022-09-21T03:46:54;7.60;95.80
37412;DHT22;23278;52.110;6.050;2022-09-21T03:49:20;7.50;95.80
37412;DHT22;23278;52.110;6.050;2022-09-21T03:51:45;7.50;95.90
37412;DHT22;23278;52.110;6.050;2022-09-21T03:54:11;7.40;95.90
37412;DHT22;23278;52.110;6.050;2022-09-21T03:56:37;7.40;95.90
37412;DHT22;23278;52.110;6.050;2022-09-21T03:59:03;7.40;95.90
37412;DHT22;23278;52.110;6.050;2022-09-21T04:01:29;7.40;96.00
37412;DHT22;23278;52.110;6.050;2022-09-21T04:03:55;7.30;96.00
37412;DHT22;23278;52.110;6.050;2022-09-21T04:06:20;7.30;96.00
37412;DHT22;23278;52.110;6.050;2022-09-21T04:08:46;7.30;96.20
37412;DHT22;23278;52.110;6.050;2022-09-21T04:11:16;7.30;96.10
37412;DHT22;23278;52.110;6.050;2022-09-21T04:13:42;7.20;96.10
37412;DHT22;23278;52.110;6.050;2022-09-21T04:16:09;7.20;96.10
37412;DHT22;23278;52.110;6.050;2022-09-21T04:18:36;7.20;96.10
37412;DHT22;23278;52.110;6.050;2022-09-21T04:21:05;7.20;96.10
37412;DHT22;23278;52.110;6.050;2022-09-21T04:23:31;7.20;96.20
37412;DHT22;23278;52.110;6.050;2022-09-21T04:25:57;7.10;96.20
37412;DHT22;23278;52.110;6.050;2022-09-21T04:28:23;7.10;96.20
37412;DHT22;23278;52.110;6.050;2022-09-21T04:30:52;7.10;96.20
37412;DHT22;23278;52.110;6.050;2022-09-21T04:33:20;7.10;96.20
37412;DHT22;23278;52.110;6.050;2022-09-21T04:35:54;7.10;96.30
37412;DHT22;23278;52.110;6.050;2022-09-21T04:38:20;7.00;96.30
37412;DHT22;23278;52.110;6.050;2022-09-21T04:40:56;7.00;96.40
37412;DHT22;23278;52.110;6.050;2022-09-21T04:43:22;7.00;96.40
37412;DHT22;23278;52.110;6.050;2022-09-21T04:45:48;6.90;96.40
37412;DHT22;23278;52.110;6.050;2022-09-21T04:48:14;6.90;96.40
37412;DHT22;23278;52.110;6.050;2022-09-21T04:50:40;6.80;96.40
37412;DHT22;23278;52.110;6.050;2022-09-21T04:53:08;6.80;96.40
37412;DHT22;23278;52.110;6.050;2022-09-21T04:55:34;6.80;96.40
37412;DHT22;23278;52.110;6.050;2022-09-21T04:58:00;6.80;96.40
37412;DHT22;23278;52.110;6.050;2022-09-21T05:00:26;6.70;96.50
37412;DHT22;23278;52.110;6.050;2022-09-21T05:02:52;6.70;96.50
37412;DHT22;23278;52.110;6.050;2022-09-21T05:05:17;6.70;96.50
37412;DHT22;23278;52.110;6.050;2022-09-21T05:07:43;6.70;96.50
37412;DHT22;23278;52.110;6.050;2022-09-21T05:10:10;6.70;96.50
37412;DHT22;23278;52.110;6.050;2022-09-21T05:12:36;6.70;96.50
37412;DHT22;23278;52.110;6.050;2022-09-21T05:15:02;6.70;96.60
37412;DHT22;23278;52.110;6.050;2022-09-21T05:17:29;6.70;96.60
37412;DHT22;23278;52.110;6.050;2022-09-21T05:19:54;6.70;96.60
37412;DHT22;23278;52.110;6.050;2022-09-21T05:22:20;6.70;96.60
37412;DHT22;23278;52.110;6.050;2022-09-21T05:24:46;6.70;96.60
37412;DHT22;23278;52.110;6.050;2022-09-21T05:27:13;6.60;96.60
37412;DHT22;23278;52.110;6.050;2022-09-21T05:29:39;6.60;96.60
37412;DHT22;23278;52.110;6.050;2022-09-21T05:32:13;6.60;96.60
37412;DHT22;23278;52.110;6.050;2022-09-21T05:37:51;6.60;96.60
37412;DHT22;23278;52.110;6.050;2022-09-21T05:40:18;6.60;96.60
37412;DHT22;23278;52.110;6.050;2022-09-21T05:42:44;6.50;96.50
37412;DHT22;23278;52.110;6.050;2022-09-21T05:45:17;6.50;96.50
37412;DHT22;23278;52.110;6.050;2022-09-21T05:51:05;6.50;96.50
37412;DHT22;23278;52.110;6.050;2022-09-21T05:54:37;6.50;96.50
37412;DHT22;23278;52.110;6.050;2022-09-21T05:59:54;6.60;96.50
37412;DHT22;23278;52.110;6.050;2022-09-21T06:04:55;6.60;96.50
37412;DHT22;23278;52.110;6.050;2022-09-21T06:07:22;6.60;96.40
37412;DHT22;23278;52.110;6.050;2022-09-21T06:09:48;6.60;96.40
37412;DHT22;23278;52.110;6.050;2022-09-21T06:12:13;6.70;96.40
37412;DHT22;23278;52.110;6.050;2022-09-21T06:14:39;6.70;96.40
37412;DHT22;23278;52.110;6.050;2022-09-21T06:17:05;6.70;96.40
37412;DHT22;23278;52.110;6.050;2022-09-21T06:19:31;6.80;96.40
37412;DHT22;23278;52.110;6.050;2022-09-21T06:21:57;6.80;96.40
37412;DHT22;23278;52.110;6.050;2022-09-21T06:24:23;6.90;96.40
37412;DHT22;23278;52.110;6.050;2022-09-21T06:26:49;6.90;96.40
37412;DHT22;23278;52.110;6.050;2022-09-21T06:29:14;7.00;96.40
37412;DHT22;23278;52.110;6.050;2022-09-21T06:31:42;7.00;96.40
37412;DHT22;23278;52.110;6.050;2022-09-21T06:34:07;7.10;96.40
37412;DHT22;23278;52.110;6.050;2022-09-21T06:36:33;7.10;96.40
37412;DHT22;23278;52.110;6.050;2022-09-21T06:38:59;7.20;96.60
37412;DHT22;23278;52.110;6.050;2022-09-21T06:41:25;7.30;96.40
37412;DHT22;23278;52.110;6.050;2022-09-21T06:43:54;7.40;96.40
37412;DHT22;23278;52.110;6.050;2022-09-21T06:46:21;7.40;96.40
37412;DHT22;23278;52.110;6.050;2022-09-21T06:48:47;7.50;96.40
37412;DHT22;23278;52.110;6.050;2022-09-21T06:51:13;7.60;96.40
37412;DHT22;23278;52.110;6.050;2022-09-21T06:53:39;7.70;96.40
37412;DHT22;23278;52.110;6.050;2022-09-21T06:56:07;7.80;96.50
37412;DHT22;23278;52.110;6.050;2022-09-21T06:58:34;7.90;96.50
37412;DHT22;23278;52.110;6.050;2022-09-21T07:01:08;8.00;96.50
37412;DHT22;23278;52.110;6.050;2022-09-21T07:03:34;8.10;96.50
37412;DHT22;23278;52.110;6.050;2022-09-21T07:06:01;8.20;96.50
37412;DHT22;23278;52.110;6.050;2022-09-21T07:08:27;8.30;96.50
37412;DHT22;23278;52.110;6.050;2022-09-21T07:10:53;8.40;96.50
37412;DHT22;23278;52.110;6.050;2022-09-21T07:13:21;8.50;96.50
37412;DHT22;23278;52.110;6.050;2022-09-21T07:15:48;8.70;96.50
37412;DHT22;23278;52.110;6.050;2022-09-21T07:18:14;8.80;96.50
37412;DHT22;23278;52.110;6.050;2022-09-21T07:20:40;8.90;96.50
37412;DHT22;23278;52.110;6.050;2022-09-21T07:23:10;9.10;96.60
37412;DHT22;23278;52.110;6.050;2022-09-21T07:25:36;9.20;96.70
37412;DHT22;23278;52.110;6.050;2022-09-21T07:28:02;9.30;96.60
37412;DHT22;23278;52.110;6.050;2022-09-21T07:30:28;9.40;96.70
37412;DHT22;23278;52.110;6.050;2022-09-21T07:32:54;9.50;96.80
37412;DHT22;23278;52.110;6.050;2022-09-21T07:35:19;9.60;96.80
37412;DHT22;23278;52.110;6.050;2022-09-21T07:37:45;9.70;96.90
37412;DHT22;23278;52.110;6.050;2022-09-21T07:40:11;9.80;96.90
37412;DHT22;23278;52.110;6.050;2022-09-21T07:42:37;10.00;97.00
37412;DHT22;23278;52.110;6.050;2022-09-21T07:45:04;10.10;97.30
37412;DHT22;23278;52.110;6.050;2022-09-21T07:47:31;10.30;97.30
37412;DHT22;23278;52.110;6.050;2022-09-21T07:49:57;10.40;97.30
37412;DHT22;23278;52.110;6.050;2022-09-21T07:52:23;10.60;97.30
37412;DHT22;23278;52.110;6.050;2022-09-21T07:54:48;10.70;97.40
37412;DHT22;23278;52.110;6.050;2022-09-21T07:57:14;10.80;97.40
37412;DHT22;23278;52.110;6.050;2022-09-21T07:59:59;10.90;97.40
37412;DHT22;23278;52.110;6.050;2022-09-21T08:02:25;11.10;97.50
37412;DHT22;23278;52.110;6.050;2022-09-21T08:04:51;11.20;97.40
37412;DHT22;23278;52.110;6.050;2022-09-21T08:07:18;11.40;97.40
37412;DHT22;23278;52.110;6.050;2022-09-21T08:09:44;11.50;97.30
37412;DHT22;23278;52.110;6.050;2022-09-21T08:12:14;11.70;97.30
37412;DHT22;23278;52.110;6.050;2022-09-21T08:14:43;11.90;97.30
37412;DHT22;23278;52.110;6.050;2022-09-21T08:17:09;12.10;97.20
37412;DHT22;23278;52.110;6.050;2022-09-21T08:19:35;12.20;97.10
37412;DHT22;23278;52.110;6.050;2022-09-21T08:22:01;12.40;97.00
37412;DHT22;23278;52.110;6.050;2022-09-21T08:24:27;12.60;96.80
37412;DHT22;23278;52.110;6.050;2022-09-21T08:26:53;12.80;96.70
37412;DHT22;23278;52.110;6.050;2022-09-21T08:29:20;12.90;96.50
37412;DHT22;23278;52.110;6.050;2022-09-21T08:31:46;13.10;96.30
37412;DHT22;23278;52.110;6.050;2022-09-21T08:34:12;13.30;96.20
37412;DHT22;23278;52.110;6.050;2022-09-21T08:36:38;13.50;96.00
37412;DHT22;23278;52.110;6.050;2022-09-21T08:39:08;13.60;95.80
37412;DHT22;23278;52.110;6.050;2022-09-21T08:50:51;14.30;95.00
37412;DHT22;23278;52.110;6.050;2022-09-21T08:55:43;14.70;94.30
37412;DHT22;23278;52.110;6.050;2022-09-21T08:58:29;14.90;94.00
37412;DHT22;23278;52.110;6.050;2022-09-21T09:09:19;16.80;92.90
37412;DHT22;23278;52.110;6.050;2022-09-21T09:12:07;17.60;91.90
37412;DHT22;23278;52.110;6.050;2022-09-21T09:22:42;20.30;82.70
37412;DHT22;23278;52.110;6.050;2022-09-21T09:25:22;20.80;80.20
37412;DHT22;23278;52.110;6.050;2022-09-21T09:27:56;21.30;76.80
37412;DHT22;23278;52.110;6.050;2022-09-21T09:30:25;21.70;74.30
37412;DHT22;23278;52.110;6.050;2022-09-21T09:33:09;22.10;73.00
37412;DHT22;23278;52.110;6.050;2022-09-21T09:38:27;23.10;68.20
37412;DHT22;23278;52.110;6.050;2022-09-21T09:43:51;23.90;62.60
37412;DHT22;23278;52.110;6.050;2022-09-21T09:49:23;25.00;59.20
37412;DHT22;23278;52.110;6.050;2022-09-21T09:51:53;25.50;57.10
37412;DHT22;23278;52.110;6.050;2022-09-21T09:54:20;25.70;54.90
37412;DHT22;23278;52.110;6.050;2022-09-21T09:56:48;26.00;53.50
37412;DHT22;23278;52.110;6.050;2022-09-21T09:59:29;26.50;52.80
37412;DHT22;23278;52.110;6.050;2022-09-21T10:02:05;27.20;51.50
37412;DHT22;23278;52.110;6.050;2022-09-21T10:04:32;27.70;50.00
37412;DHT22;23278;52.110;6.050;2022-09-21T10:06:59;28.20;48.50
37412;DHT22;23278;52.110;6.050;2022-09-21T10:09:30;28.90;47.80
37412;DHT22;23278;52.110;6.050;2022-09-21T10:11:57;29.50;45.60
37412;DHT22;23278;52.110;6.050;2022-09-21T10:14:26;30.00;44.70
37412;DHT22;23278;52.110;6.050;2022-09-21T10:16:55;30.50;42.90
37412;DHT22;23278;52.110;6.050;2022-09-21T10:19:26;30.90;42.40
37412;DHT22;23278;52.110;6.050;2022-09-21T10:22:00;31.20;40.40
37412;DHT22;23278;52.110;6.050;2022-09-21T10:24:30;31.50;39.80
37412;DHT22;23278;52.110;6.050;2022-09-21T10:29:47;32.20;38.40
37412;DHT22;23278;52.110;6.050;2022-09-21T10:32:23;31.40;39.40
37412;DHT22;23278;52.110;6.050;2022-09-21T10:37:48;31.90;38.60
37412;DHT22;23278;52.110;6.050;2022-09-21T10:40:36;33.00;37.90
37412;DHT22;23278;52.110;6.050;2022-09-21T10:43:02;34.30;36.90
37412;DHT22;23278;52.110;6.050;2022-09-21T10:45:34;35.20;35.70
37412;DHT22;23278;52.110;6.050;2022-09-21T10:50:44;36.40;34.60
37412;DHT22;23278;52.110;6.050;2022-09-21T10:58:16;37.80;33.70
37412;DHT22;23278;52.110;6.050;2022-09-21T11:00:45;37.70;33.70
37412;DHT22;23278;52.110;6.050;2022-09-21T11:06:06;37.60;32.80
37412;DHT22;23278;52.110;6.050;2022-09-21T11:14:21;33.20;35.40
37412;DHT22;23278;52.110;6.050;2022-09-21T11:25:47;27.50;39.00
37412;DHT22;23278;52.110;6.050;2022-09-21T11:34:12;25.80;40.30
37412;DHT22;23278;52.110;6.050;2022-09-21T11:39:51;24.80;41.10
37412;DHT22;23278;52.110;6.050;2022-09-21T11:47:55;24.00;41.60
37412;DHT22;23278;52.110;6.050;2022-09-21T11:53:42;23.60;41.90
37412;DHT22;23278;52.110;6.050;2022-09-21T11:56:34;23.40;42.10
37412;DHT22;23278;52.110;6.050;2022-09-21T11:59:44;23.90;41.60
37412;DHT22;23278;52.110;6.050;2022-09-21T12:05:36;31.00;35.20
37412;DHT22;23278;52.110;6.050;2022-09-21T12:13:42;31.60;34.60
37412;DHT22;23278;52.110;6.050;2022-09-21T12:19:32;34.70;32.50
37412;DHT22;23278;52.110;6.050;2022-09-21T12:22:12;35.00;31.60
37412;DHT22;23278;52.110;6.050;2022-09-21T12:24:57;33.00;33.40
37412;DHT22;23278;52.110;6.050;2022-09-21T12:27:35;31.00;33.90
37412;DHT22;23278;52.110;6.050;2022-09-21T12:30:22;29.40;34.90
37412;DHT22;23278;52.110;6.050;2022-09-21T12:33:01;28.60;35.50
37412;DHT22;23278;52.110;6.050;2022-09-21T12:39:04;29.10;35.00
37412;DHT22;23278;52.110;6.050;2022-09-21T12:41:51;30.00;34.30
37412;DHT22;23278;52.110;6.050;2022-09-21T12:44:36;32.60;32.10
37412;DHT22;23278;52.110;6.050;2022-09-21T12:53:19;38.70;29.80
37412;DHT22;23278;52.110;6.050;2022-09-21T13:06:52;42.60;28.50
37412;DHT22;23278;52.110;6.050;2022-09-21T13:09:23;42.90;28.10
37412;DHT22;23278;52.110;6.050;2022-09-21T13:11:54;43.20;27.90
37412;DHT22;23278;52.110;6.050;2022-09-21T13:14:30;43.70;27.40
37412;DHT22;23278;52.110;6.050;2022-09-21T13:17:01;44.00;27.60
37412;DHT22;23278;52.110;6.050;2022-09-21T13:19:30;44.30;27.40
37412;DHT22;23278;52.110;6.050;2022-09-21T13:22:12;44.50;27.60
37412;DHT22;23278;52.110;6.050;2022-09-21T13:25:17;44.60;27.40
37412;DHT22;23278;52.110;6.050;2022-09-21T13:30:45;44.60;27.20
37412;DHT22;23278;52.110;6.050;2022-09-21T13:43:48;45.40;26.50
37412;DHT22;23278;52.110;6.050;2022-09-21T13:54:45;45.10;26.30
37412;DHT22;23278;52.110;6.050;2022-09-21T13:57:40;44.90;26.20
37412;DHT22;23278;52.110;6.050;2022-09-21T14:05:44;41.30;26.90
37412;DHT22;23278;52.110;6.050;2022-09-21T14:13:41;35.60;28.50
37412;DHT22;23278;52.110;6.050;2022-09-21T14:19:00;32.80;29.30
37412;DHT22;23278;52.110;6.050;2022-09-21T14:21:27;31.80;29.50
37412;DHT22;23278;52.110;6.050;2022-09-21T14:26:55;30.00;30.00
37412;DHT22;23278;52.110;6.050;2022-09-21T14:29:37;29.40;30.30
37412;DHT22;23278;52.110;6.050;2022-09-21T14:32:12;28.70;30.80
37412;DHT22;23278;52.110;6.050;2022-09-21T14:34:41;28.10;31.30
37412;DHT22;23278;52.110;6.050;2022-09-21T14:37:32;27.50;31.70
37412;DHT22;23278;52.110;6.050;2022-09-21T14:40:00;27.10;32.10
37412;DHT22;23278;52.110;6.050;2022-09-21T14:42:28;27.00;32.30
37412;DHT22;23278;52.110;6.050;2022-09-21T14:44:59;27.40;32.10
37412;DHT22;23278;52.110;6.050;2022-09-21T14:47:53;27.50;32.00
37412;DHT22;23278;52.110;6.050;2022-09-21T14:50:33;27.30;32.20
37412;DHT22;23278;52.110;6.050;2022-09-21T15:04:22;32.10;29.70
37412;DHT22;23278;52.110;6.050;2022-09-21T15:07:15;33.70;29.20
37412;DHT22;23278;52.110;6.050;2022-09-21T15:10:28;34.70;28.40
37412;DHT22;23278;52.110;6.050;2022-09-21T15:18:31;36.10;28.10
37412;DHT22;23278;52.110;6.050;2022-09-21T15:21:02;36.50;28.10
37412;DHT22;23278;52.110;6.050;2022-09-21T15:23:40;36.20;28.10
37412;DHT22;23278;52.110;6.050;2022-09-21T15:26:13;34.80;28.30
37412;DHT22;23278;52.110;6.050;2022-09-21T15:28:48;33.00;29.00
37412;DHT22;23278;52.110;6.050;2022-09-21T15:31:16;31.40;29.50
37412;DHT22;23278;52.110;6.050;2022-09-21T15:33:44;30.30;29.90
37412;DHT22;23278;52.110;6.050;2022-09-21T15:36:18;29.40;30.20
37412;DHT22;23278;52.110;6.050;2022-09-21T15:38:47;28.70;30.50
37412;DHT22;23278;52.110;6.050;2022-09-21T15:41:38;27.90;30.80
37412;DHT22;23278;52.110;6.050;2022-09-21T15:44:17;27.30;31.30
37412;DHT22;23278;52.110;6.050;2022-09-21T15:46:47;26.60;31.80
37412;DHT22;23278;52.110;6.050;2022-09-21T15:49:16;26.00;32.40
37412;DHT22;23278;52.110;6.050;2022-09-21T15:51:51;25.50;32.60
37412;DHT22;23278;52.110;6.050;2022-09-21T15:56:48;24.60;33.50
37412;DHT22;23278;52.110;6.050;2022-09-21T15:59:18;24.30;34.00
37412;DHT22;23278;52.110;6.050;2022-09-21T16:01:48;24.10;34.20
37412;DHT22;23278;52.110;6.050;2022-09-21T16:04:19;23.80;34.60
37412;DHT22;23278;52.110;6.050;2022-09-21T16:06:47;23.50;34.90
37412;DHT22;23278;52.110;6.050;2022-09-21T16:11:52;23.00;35.40
37412;DHT22;23278;52.110;6.050;2022-09-21T16:14:19;22.80;35.60
37412;DHT22;23278;52.110;6.050;2022-09-21T16:19:45;22.20;36.40
37412;DHT22;23278;52.110;6.050;2022-09-21T16:22:35;22.00;36.60
37412;DHT22;23278;52.110;6.050;2022-09-21T16:25:02;21.80;36.80
37412;DHT22;23278;52.110;6.050;2022-09-21T16:27:49;21.60;37.00
37412;DHT22;23278;52.110;6.050;2022-09-21T16:30:41;21.40;37.20
37412;DHT22;23278;52.110;6.050;2022-09-21T16:33:38;21.30;37.60
37412;DHT22;23278;52.110;6.050;2022-09-21T16:38:59;20.90;38.50
37412;DHT22;23278;52.110;6.050;2022-09-21T16:41:47;20.70;39.20
37412;DHT22;23278;52.110;6.050;2022-09-21T16:44:19;20.60;39.90
37412;DHT22;23278;52.110;6.050;2022-09-21T16:47:00;20.40;40.60
37412;DHT22;23278;52.110;6.050;2022-09-21T16:49:30;20.20;41.70
37412;DHT22;23278;52.110;6.050;2022-09-21T16:51:57;20.10;41.90
37412;DHT22;23278;52.110;6.050;2022-09-21T16:54:24;19.90;42.50
37412;DHT22;23278;52.110;6.050;2022-09-21T16:56:57;19.70;43.20
37412;DHT22;23278;52.110;6.050;2022-09-21T16:59:23;19.60;43.60
37412;DHT22;23278;52.110;6.050;2022-09-21T17:01:51;19.40;43.80
37412;DHT22;23278;52.110;6.050;2022-09-21T17:04:19;19.30;44.40
37412;DHT22;23278;52.110;6.050;2022-09-21T17:06:50;19.10;45.30
37412;DHT22;23278;52.110;6.050;2022-09-21T17:09:21;19.00;46.20
37412;DHT22;23278;52.110;6.050;2022-09-21T17:11:47;18.80;46.80
37412;DHT22;23278;52.110;6.050;2022-09-21T17:14:14;18.60;46.90
37412;DHT22;23278;52.110;6.050;2022-09-21T17:16:45;18.50;47.30
37412;DHT22;23278;52.110;6.050;2022-09-21T17:19:12;18.30;48.10
37412;DHT22;23278;52.110;6.050;2022-09-21T17:21:39;18.10;48.30
37412;DHT22;23278;52.110;6.050;2022-09-21T17:24:05;18.00;49.10
37412;DHT22;23278;52.110;6.050;2022-09-21T17:26:32;17.80;49.50
37412;DHT22;23278;52.110;6.050;2022-09-21T17:28:59;17.70;50.00
37412;DHT22;23278;52.110;6.050;2022-09-21T17:31:25;17.60;50.50
37412;DHT22;23278;52.110;6.050;2022-09-21T17:33:53;17.50;51.30
37412;DHT22;23278;52.110;6.050;2022-09-21T17:36:21;17.30;52.00
37412;DHT22;23278;52.110;6.050;2022-09-21T17:38:47;17.10;52.10
37412;DHT22;23278;52.110;6.050;2022-09-21T17:41:30;17.00;52.40
37412;DHT22;23278;52.110;6.050;2022-09-21T17:44:09;16.80;52.70
37412;DHT22;23278;52.110;6.050;2022-09-21T17:47:08;16.60;53.40
37412;DHT22;23278;52.110;6.050;2022-09-21T17:49:36;16.50;55.00
37412;DHT22;23278;52.110;6.050;2022-09-21T17:52:02;16.30;56.10
37412;DHT22;23278;52.110;6.050;2022-09-21T17:54:47;16.20;56.00
37412;DHT22;23278;52.110;6.050;2022-09-21T17:57:43;16.10;56.50
37412;DHT22;23278;52.110;6.050;2022-09-21T18:00:19;15.90;56.60
37412;DHT22;23278;52.110;6.050;2022-09-21T18:02:47;15.70;56.90
37412;DHT22;23278;52.110;6.050;2022-09-21T18:05:31;15.60;57.60
37412;DHT22;23278;52.110;6.050;2022-09-21T18:07:57;15.50;58.10
37412;DHT22;23278;52.110;6.050;2022-09-21T18:10:24;15.40;58.20
37412;DHT22;23278;52.110;6.050;2022-09-21T18:13:17;15.30;58.50
37412;DHT22;23278;52.110;6.050;2022-09-21T18:21:24;14.90;60.00
37412;DHT22;23278;52.110;6.050;2022-09-21T18:24:21;14.80;60.30
37412;DHT22;23278;52.110;6.050;2022-09-21T18:26:52;14.70;60.90
37412;DHT22;23278;52.110;6.050;2022-09-21T18:29:27;14.50;60.90
37412;DHT22;23278;52.110;6.050;2022-09-21T18:37:04;14.20;61.90
37412;DHT22;23278;52.110;6.050;2022-09-21T18:40:01;14.10;61.90
37412;DHT22;23278;52.110;6.050;2022-09-21T18:56:06;13.50;63.80
37412;DHT22;23278;52.110;6.050;2022-09-21T18:58:33;13.30;63.80
37412;DHT22;23278;52.110;6.050;2022-09-21T19:00:59;13.20;64.20
37412;DHT22;23278;52.110;6.050;2022-09-21T19:03:25;13.20;64.90
37412;DHT22;23278;52.110;6.050;2022-09-21T19:20:43;12.70;66.30
37412;DHT22;23278;52.110;6.050;2022-09-21T19:26:15;12.50;67.00
37412;DHT22;23278;52.110;6.050;2022-09-21T19:29:18;12.40;67.20
37412;DHT22;23278;52.110;6.050;2022-09-21T19:31:45;12.30;68.00
37412;DHT22;23278;52.110;6.050;2022-09-21T19:34:16;12.30;68.20
37412;DHT22;23278;52.110;6.050;2022-09-21T19:36:43;12.20;68.30
37412;DHT22;23278;52.110;6.050;2022-09-21T19:39:12;12.10;68.40
37412;DHT22;23278;52.110;6.050;2022-09-21T19:44:46;12.00;69.40
37412;DHT22;23278;52.110;6.050;2022-09-21T19:47:32;11.90;69.10
37412;DHT22;23278;52.110;6.050;2022-09-21T19:50:22;11.80;69.30
37412;DHT22;23278;52.110;6.050;2022-09-21T19:52:48;11.70;69.50
37412;DHT22;23278;52.110;6.050;2022-09-21T19:55:20;11.70;70.00
37412;DHT22;23278;52.110;6.050;2022-09-21T19:58:05;11.60;70.00
37412;DHT22;23278;52.110;6.050;2022-09-21T20:00:54;11.50;70.40
37412;DHT22;23278;52.110;6.050;2022-09-21T20:03:32;11.50;70.60
37412;DHT22;23278;52.110;6.050;2022-09-21T20:06:06;11.40;70.90
37412;DHT22;23278;52.110;6.050;2022-09-21T20:08:35;11.40;71.20
37412;DHT22;23278;52.110;6.050;2022-09-21T20:11:19;11.30;71.30
37412;DHT22;23278;52.110;6.050;2022-09-21T20:21:40;11.00;72.50
37412;DHT22;23278;52.110;6.050;2022-09-21T20:26:49;10.90;73.10
37412;DHT22;23278;52.110;6.050;2022-09-21T20:29:19;10.80;73.50
37412;DHT22;23278;52.110;6.050;2022-09-21T20:31:46;10.80;74.00
37412;DHT22;23278;52.110;6.050;2022-09-21T20:34:13;10.80;74.20
37412;DHT22;23278;52.110;6.050;2022-09-21T20:36:40;10.70;74.30
37412;DHT22;23278;52.110;6.050;2022-09-21T20:39:06;10.60;74.40
37412;DHT22;23278;52.110;6.050;2022-09-21T20:41:32;10.60;75.20
37412;DHT22;23278;52.110;6.050;2022-09-21T20:43:58;10.50;75.10
37412;DHT22;23278;52.110;6.050;2022-09-21T20:46:24;10.50;75.20
37412;DHT22;23278;52.110;6.050;2022-09-21T20:48:50;10.40;75.40